Time;durP1;ratioP1;P1;durP2;ratioP2;P2;SDS_P1;SDS_P2;PMS_P1;PMS_P2;Temp;Humidity;BMP_temperature;BMP_pressure;BME280_temperature;BME280_humidity;BME280_pressure;Samples;Min_cycle;Max_cycle;Signal;HPM_P1;HPM_P2
2022/05/14 00:01:53;;;;;;;8.52;3.62;;;;;;;18.31;73.25;98249.84;5437161;26;20130;-77
2022/05/14 00:04:21;;;;;;;9.25;3.90;;;;;;;18.35;73.00;98242.63;5436788;26;20077;-77
2022/05/14 00:06:48;;;;;;;8.48;3.80;;;;;;;18.27;73.15;98243.16;5437261;26;20050;-77
2022/05/14 00:09:15;;;;;;;8.93;3.87;;;;;;;18.27;73.29;98242.34;5437077;26;20453;-77
2022/05/14 00:14:27;;;;;;;9.23;4.07;;;;;;;18.14;73.79;98242.38;5437352;26;20118;-77
2022/05/14 00:16:55;;;;;;;8.30;3.65;;;;;;;17.91;75.02;98241.37;5437226;26;20456;-77
2022/05/14 00:19:22;;;;;;;11.43;4.05;;;;;;;18.24;73.83;98240.78;5436212;26;20047;-77
2022/05/14 00:21:49;;;;;;;11.88;4.50;;;;;;;17.99;74.59;98239.06;5437278;26;20055;-77
2022/05/14 00:24:16;;;;;;;12.00;4.37;;;;;;;17.83;75.35;98246.28;5436985;26;20374;-77
2022/05/14 00:26:43;;;;;;;7.75;4.03;;;;;;;17.87;75.05;98245.97;5437063;26;20456;-77
2022/05/14 00:29:13;;;;;;;9.70;4.62;;;;;;;17.82;75.30;98253.28;5437190;26;20121;-77
2022/05/14 00:31:40;;;;;;;10.55;4.40;;;;;;;17.79;76.20;98253.50;5416858;26;20063;-77
2022/05/14 00:34:07;;;;;;;9.80;4.60;;;;;;;17.95;75.81;98236.75;5437235;26;20073;-77
2022/05/14 00:36:34;;;;;;;11.82;4.50;;;;;;;17.67;76.88;98235.22;5437168;26;20062;-77
2022/05/14 00:39:01;;;;;;;9.70;4.87;;;;;;;17.95;76.14;98232.37;5436536;26;20099;-77
2022/05/14 00:41:28;;;;;;;10.45;4.43;;;;;;;17.91;76.52;98233.53;5437205;26;20078;-77
2022/05/14 00:43:57;;;;;;;8.40;4.30;;;;;;;17.77;76.82;98239.72;5437020;26;20460;-77
2022/05/14 00:46:49;;;;;;;11.02;4.40;;;;;;;17.61;78.16;98241.66;5436638;26;20067;-77
2022/05/14 00:49:19;;;;;;;9.98;4.70;;;;;;;17.74;77.78;98250.34;5436919;26;20078;-77
2022/05/14 00:51:46;;;;;;;10.15;5.03;;;;;;;17.67;77.78;98243.88;5436947;26;20655;-77
2022/05/14 00:54:21;;;;;;;10.70;4.85;;;;;;;17.64;78.04;98250.09;5436349;26;20122;-77
2022/05/14 00:56:55;;;;;;;12.77;5.00;;;;;;;17.84;77.28;98246.16;5437226;26;20137;-77
2022/05/14 00:59:25;;;;;;;11.32;4.90;;;;;;;17.38;79.46;98248.44;5416364;26;20390;-77
2022/05/14 01:01:52;;;;;;;9.98;4.85;;;;;;;17.36;79.90;98247.72;5437066;26;20063;-77
2022/05/14 01:04:19;;;;;;;10.60;5.00;;;;;;;17.60;78.85;98237.38;5436907;26;20306;-77
2022/05/14 01:06:50;;;;;;;10.15;5.00;;;;;;;17.12;80.87;98244.12;5436627;26;20051;-77
2022/05/14 01:09:17;;;;;;;10.00;4.60;;;;;;;17.12;81.09;98241.50;5436859;26;20051;-77
2022/05/14 01:11:44;;;;;;;9.65;4.37;;;;;;;17.23;80.51;98237.28;5436996;26;20060;-77
2022/05/14 01:14:12;;;;;;;11.18;5.20;;;;;;;17.14;81.37;98242.25;5436626;26;20063;-77
2022/05/14 01:16:40;;;;;;;12.02;4.90;;;;;;;17.14;80.99;98232.66;5436861;26;20115;-77
2022/05/14 01:19:08;;;;;;;12.07;5.05;;;;;;;17.07;81.17;98231.41;5436429;26;20043;-77
2022/05/14 01:22:04;;;;;;;11.10;4.87;;;;;;;17.04;81.67;98237.66;5436501;26;20126;-77
2022/05/14 01:27:29;;;;;;;9.98;4.85;;;;;;;17.16;80.53;98246.44;5436503;26;20051;-77
2022/05/14 01:29:57;;;;;;;11.12;4.85;;;;;;;17.33;80.10;98256.59;5436828;26;20098;-77
2022/05/14 01:32:24;;;;;;;11.35;5.43;;;;;;;17.43;79.00;98256.78;5436672;26;20196;-77
2022/05/14 01:34:51;;;;;;;10.40;4.82;;;;;;;17.26;79.66;98251.88;5436445;26;20055;-77
2022/05/14 01:37:20;;;;;;;10.60;4.78;;;;;;;17.38;78.98;98245.84;5436833;26;20081;-77
2022/05/14 01:39:47;;;;;;;12.43;5.50;;;;;;;17.31;79.71;98260.22;5436715;26;20118;-77
2022/05/14 01:42:14;;;;;;;10.13;5.03;;;;;;;17.18;80.20;98260.19;5436211;26;20385;-77
2022/05/14 01:44:43;;;;;;;11.38;5.40;;;;;;;17.17;79.87;98255.09;5436618;26;20085;-78
2022/05/14 01:47:11;;;;;;;10.35;4.97;;;;;;;16.96;80.72;98258.16;5436730;26;20051;-77
2022/05/14 01:49:38;;;;;;;11.30;5.10;;;;;;;16.76;81.54;98256.00;5436194;26;20361;-77
2022/05/14 01:52:05;;;;;;;11.75;5.50;;;;;;;17.41;78.73;98257.81;5416121;26;20070;-77
2022/05/14 01:54:32;;;;;;;13.45;5.07;;;;;;;17.11;79.12;98256.31;5436746;26;20374;-77
2022/05/14 01:56:59;;;;;;;12.63;5.00;;;;;;;16.72;81.13;98259.75;5436278;26;20059;-77
2022/05/14 01:59:26;;;;;;;11.38;5.35;;;;;;;16.80;80.72;98259.25;5436610;26;20362;-77
2022/05/14 02:01:53;;;;;;;11.23;5.28;;;;;;;16.96;79.62;98263.37;5436390;26;20114;-78
2022/05/14 02:04:20;;;;;;;10.20;5.00;;;;;;;17.04;79.26;98262.87;5436134;26;20111;-77
2022/05/14 02:06:47;;;;;;;12.35;5.32;;;;;;;16.70;80.59;98267.69;5437101;26;20106;-77
2022/05/14 02:09:14;;;;;;;11.88;5.70;;;;;;;16.67;80.56;98267.81;5437455;26;20109;-77
2022/05/14 02:11:43;;;;;;;11.43;5.60;;;;;;;16.17;82.57;98271.84;5437235;26;20716;-77
2022/05/14 02:14:11;;;;;;;11.32;5.30;;;;;;;16.62;80.49;98272.50;5437640;26;20131;-77
2022/05/14 02:16:38;;;;;;;12.60;5.03;;;;;;;16.04;83.22;98272.69;5437248;26;20110;-77
2022/05/14 02:19:05;;;;;;;10.88;5.35;;;;;;;16.22;82.08;98268.13;5437351;26;20326;-77
2022/05/14 02:21:34;;;;;;;10.70;5.10;;;;;;;16.28;81.83;98268.59;5437420;26;20477;-77
2022/05/14 02:24:01;;;;;;;12.48;5.43;;;;;;;15.93;83.48;98273.34;5437231;26;20111;-77
2022/05/14 02:26:28;;;;;;;10.40;5.07;;;;;;;15.88;83.54;98268.44;5437776;26;20046;-77
2022/05/14 02:28:55;;;;;;;9.95;5.25;;;;;;;16.41;80.35;98274.69;5437475;26;20309;-77
2022/05/14 02:31:22;;;;;;;11.07;4.78;;;;;;;16.51;80.08;98280.16;5437012;26;20178;-77
2022/05/14 02:33:49;;;;;;;11.23;5.20;;;;;;;16.68;78.48;98287.75;5437643;26;20332;-77
2022/05/14 02:36:18;;;;;;;11.68;5.05;;;;;;;16.50;78.90;98291.53;5437624;26;20415;-78
2022/05/14 02:38:45;;;;;;;10.77;4.95;;;;;;;16.70;78.02;98280.72;5437094;26;20098;-77
2022/05/14 02:41:13;;;;;;;11.93;5.18;;;;;;;16.11;80.64;98287.84;5437491;26;20134;-77
2022/05/14 02:43:41;;;;;;;10.60;5.28;;;;;;;16.14;80.39;98287.66;5437754;26;20074;-77
2022/05/14 02:46:09;;;;;;;12.13;5.60;;;;;;;16.32;79.67;98280.47;5437059;26;20600;-77
2022/05/14 02:48:36;;;;;;;12.50;5.40;;;;;;;16.11;80.14;98284.41;5437206;26;20130;-77
2022/05/14 02:51:03;;;;;;;11.57;4.95;;;;;;;16.24;79.55;98274.91;5437447;26;20063;-77
2022/05/14 02:53:31;;;;;;;10.18;5.43;;;;;;;16.42;78.58;98281.56;5437337;26;20055;-77
2022/05/14 02:55:58;;;;;;;10.00;5.25;;;;;;;16.49;77.76;98288.09;5437388;26;20047;-77
2022/05/14 03:01:11;;;;;;;11.98;5.43;;;;;;;15.65;80.45;98284.59;5437249;26;20114;-77
2022/05/14 03:03:38;;;;;;;12.73;5.10;;;;;;;15.53;81.26;98282.69;5437505;26;20070;-77
2022/05/14 03:06:05;;;;;;;11.43;5.03;;;;;;;15.73;80.47;98277.13;5437001;26;20053;-77
2022/05/14 03:08:32;;;;;;;13.10;5.50;;;;;;;15.98;79.07;98291.28;5437285;26;20521;-77
2022/05/14 03:10:59;;;;;;;10.63;5.30;;;;;;;16.22;77.81;98295.00;5437503;26;20325;-78
2022/05/14 03:13:26;;;;;;;11.35;5.37;;;;;;;16.60;76.19;98299.59;5436932;26;20118;-77
2022/05/14 03:15:53;;;;;;;10.35;5.00;;;;;;;16.49;75.93;98301.09;5437468;26;20103;-77
2022/05/14 03:18:20;;;;;;;10.55;4.75;;;;;;;16.55;75.55;98307.69;5436921;26;20426;-77
2022/05/14 03:20:48;;;;;;;10.25;4.97;;;;;;;16.29;75.75;98317.13;5436641;26;20075;-77
2022/05/14 03:23:15;;;;;;;11.23;5.10;;;;;;;16.31;76.39;98306.63;5437352;26;20094;-77
2022/05/14 03:25:42;;;;;;;10.25;4.85;;;;;;;16.09;77.65;98310.53;5437273;26;20359;-77
2022/05/14 03:28:10;;;;;;;10.13;5.40;;;;;;;16.15;77.56;98311.91;5436769;26;20666;-77
2022/05/14 03:30:37;;;;;;;14.63;5.28;;;;;;;15.88;78.68;98312.66;5437364;26;20094;-77
2022/05/14 03:33:04;;;;;;;10.82;5.12;;;;;;;16.23;77.24;98320.09;5437424;26;20073;-77
2022/05/14 03:35:31;;;;;;;10.52;5.12;;;;;;;16.61;75.43;98316.87;5416499;26;20398;-77
2022/05/14 03:37:58;;;;;;;11.90;4.82;;;;;;;17.08;71.97;98315.66;5437247;26;20043;-78
2022/05/14 03:40:25;;;;;;;11.70;5.00;;;;;;;16.83;73.14;98324.22;5437273;26;20576;-77
2022/05/14 03:42:52;;;;;;;9.52;4.80;;;;;;;17.11;71.75;98331.09;5437008;26;20107;-77
2022/05/14 03:45:19;;;;;;;13.40;5.03;;;;;;;16.99;72.37;98325.72;5437153;26;20138;-77
2022/05/14 03:47:47;;;;;;;9.60;4.57;;;;;;;16.99;72.89;98337.94;5436854;26;20090;-77
2022/05/14 03:50:14;;;;;;;11.77;5.07;;;;;;;17.02;73.20;98338.59;5437288;26;20118;-77
2022/05/14 03:52:41;;;;;;;11.77;4.87;;;;;;;17.09;72.52;98344.22;5437377;26;20055;-77
2022/05/14 03:55:09;;;;;;;11.93;4.80;;;;;;;16.83;73.74;98345.91;5436964;26;20464;-77
2022/05/14 03:57:36;;;;;;;9.48;4.68;;;;;;;17.01;73.45;98343.88;5416812;26;20047;-77
2022/05/14 04:00:07;;;;;;;11.77;4.28;;;;;;;17.02;73.76;98337.75;5437320;26;20114;-77
2022/05/14 04:02:34;;;;;;;10.00;4.57;;;;;;;17.71;70.08;98348.91;5437039;26;20107;-78
2022/05/14 04:05:02;;;;;;;10.45;4.30;;;;;;;17.90;69.30;98347.56;5437117;26;20106;-78
2022/05/14 04:07:30;;;;;;;10.68;4.30;;;;;;;17.64;69.47;98346.66;5437218;26;20106;-77
2022/05/14 04:09:57;;;;;;;8.68;4.20;;;;;;;18.02;68.23;98347.66;5416412;26;20566;-77
2022/05/14 04:12:30;;;;;;;7.80;3.95;;;;;;;18.03;67.68;98352.78;5437261;26;20115;-77
2022/05/14 04:14:57;;;;;;;9.25;3.92;;;;;;;18.55;65.83;98361.41;5437234;26;20065;-77
2022/05/14 04:17:25;;;;;;;9.32;4.22;;;;;;;19.68;62.03;98359.31;5436675;26;20458;-77
2022/05/14 04:19:52;;;;;;;8.75;3.47;;;;;;;20.46;59.13;98358.59;5437022;26;20069;-77
2022/05/14 04:22:18;;;;;;;8.25;3.90;;;;;;;21.20;56.10;98356.19;5437174;26;20525;-77
2022/05/14 04:24:45;;;;;;;8.60;3.60;;;;;;;20.58;57.60;98356.81;5436835;26;20441;-77
2022/05/14 04:27:12;;;;;;;8.68;3.90;;;;;;;20.07;59.34;98367.72;5437116;26;20055;-77
2022/05/14 04:29:39;;;;;;;7.95;3.67;;;;;;;20.13;59.56;98373.31;5436648;26;20059;-77
2022/05/14 04:32:07;;;;;;;9.80;3.67;;;;;;;20.60;58.13;98368.84;5436837;26;20118;-77
2022/05/14 04:34:39;;;;;;;7.97;3.45;;;;;;;21.14;56.18;98382.91;5437195;26;20376;-77
2022/05/14 04:37:06;;;;;;;8.73;4.00;;;;;;;22.11;53.52;98387.19;5436795;26;20153;-78
2022/05/14 04:39:33;;;;;;;9.57;3.40;;;;;;;22.27;52.85;98384.09;5437016;26;20051;-78
2022/05/14 04:42:02;;;;;;;8.98;3.58;;;;;;;23.29;49.66;98391.78;5437132;26;20114;-78
2022/05/14 04:44:30;;;;;;;7.43;3.45;;;;;;;24.00;47.77;98390.66;5436708;26;20110;-78
2022/05/14 04:46:57;;;;;;;7.22;3.47;;;;;;;23.87;48.78;98390.97;5437131;26;20070;-78
2022/05/14 04:49:24;;;;;;;10.18;3.42;;;;;;;24.48;47.43;98394.03;5436986;26;20126;-78
2022/05/14 04:51:51;;;;;;;7.18;3.00;;;;;;;24.87;46.41;98393.03;5436635;26;20075;-78
2022/05/14 04:54:18;;;;;;;8.30;3.15;;;;;;;25.32;44.63;98401.00;5437131;26;20048;-77
2022/05/14 04:56:45;;;;;;;9.15;3.22;;;;;;;25.35;44.16;98393.59;5437069;26;20098;-77
2022/05/14 04:59:13;;;;;;;8.32;3.35;;;;;;;26.42;41.84;98405.88;5436418;26;20114;-78
2022/05/14 05:03:16;;;;;;;8.57;3.08;;;;;;;26.84;40.67;98405.91;5437018;26;20122;-78
2022/05/14 05:04:28;;;;;;;9.68;3.30;;;;;;;27.89;38.33;98410.63;5436939;26;20420;-78
2022/05/14 05:06:55;;;;;;;10.15;2.90;;;;;;;28.89;36.01;98407.63;5436689;26;20118;-78
2022/05/14 05:09:22;;;;;;;6.65;3.12;;;;;;;29.46;34.88;98409.97;5436876;26;20468;-78
2022/05/14 05:11:50;;;;;;;7.82;2.92;;;;;;;29.58;33.91;98412.06;5436886;26;20130;-78
2022/05/14 05:14:17;;;;;;;7.43;3.15;;;;;;;30.21;33.04;98410.06;5436642;26;20075;-78
2022/05/14 05:16:44;;;;;;;6.20;2.60;;;;;;;31.16;31.80;98419.94;5437010;26;20098;-78
2022/05/14 05:19:11;;;;;;;6.70;2.80;;;;;;;30.53;32.14;98414.22;5436366;26;20118;-78
2022/05/14 05:21:39;;;;;;;7.97;2.40;;;;;;;30.32;32.24;98424.78;5437030;26;20409;-78
2022/05/14 05:24:06;;;;;;;9.45;2.95;;;;;;;31.18;30.92;98423.28;5436894;26;20121;-78
2022/05/14 05:26:33;;;;;;;8.18;2.85;;;;;;;30.48;31.55;98436.06;5436366;26;20456;-78
2022/05/14 05:29:00;;;;;;;7.90;2.90;;;;;;;29.52;32.66;98431.37;5436675;26;20054;-78
2022/05/14 05:31:27;;;;;;;9.90;2.87;;;;;;;29.23;32.82;98447.94;5436823;26;20071;-78
2022/05/14 05:33:54;;;;;;;5.28;2.30;;;;;;;28.20;34.13;98436.47;5436522;26;20065;-78
2022/05/14 05:36:21;;;;;;;7.12;2.70;;;;;;;27.43;36.02;98437.69;5436839;26;20044;-78
2022/05/14 05:38:48;;;;;;;10.02;2.60;;;;;;;26.49;37.42;98436.00;5436596;26;20546;-78
2022/05/14 05:41:15;;;;;;;9.07;2.90;;;;;;;26.30;37.57;98439.66;5436925;26;20054;-78
2022/05/14 05:43:42;;;;;;;6.75;2.80;;;;;;;27.25;35.11;98438.69;5437826;26;20106;-78
2022/05/14 05:46:11;;;;;;;6.37;2.75;;;;;;;27.31;35.69;98439.84;5437621;26;20094;-78
2022/05/14 05:48:40;;;;;;;6.70;2.62;;;;;;;26.97;35.34;98446.00;5437013;26;20059;-78
2022/05/14 05:51:07;;;;;;;8.60;3.17;;;;;;;26.26;36.93;98451.50;5437694;26;20137;-78
2022/05/14 05:59:06;;;;;;;7.60;2.67;;;;;;;27.38;34.49;98454.09;5437755;26;20063;-78
2022/05/14 06:01:33;;;;;;;10.63;2.97;;;;;;;26.36;36.28;98457.53;5437360;26;20069;-78
2022/05/14 06:04:00;;;;;;;8.50;2.90;;;;;;;26.49;37.50;98459.81;5437758;26;20047;-78
2022/05/14 06:06:27;;;;;;;7.82;2.87;;;;;;;26.57;37.73;98467.78;5437563;26;20135;-78
2022/05/14 06:08:54;;;;;;;5.57;2.62;;;;;;;25.88;38.27;98464.13;5437122;26;20070;-78
2022/05/14 06:11:21;;;;;;;6.57;3.00;;;;;;;25.99;38.14;98465.72;5437648;26;20119;-78
2022/05/14 06:13:48;;;;;;;5.55;2.50;;;;;;;26.20;39.21;98475.94;5437572;26;20416;-78
2022/05/14 06:16:15;;;;;;;6.82;2.80;;;;;;;25.98;38.76;98471.16;5437161;26;20047;-79
2022/05/14 06:18:42;;;;;;;7.60;3.05;;;;;;;25.81;39.45;98471.00;5437463;26;20119;-79
2022/05/14 06:21:10;;;;;;;7.57;2.95;;;;;;;25.68;39.36;98475.81;5437556;26;20059;-79
2022/05/14 06:23:38;;;;;;;9.25;3.55;;;;;;;25.15;42.89;98478.34;5437191;26;20068;-79
2022/05/14 06:26:05;;;;;;;10.93;3.22;;;;;;;25.53;41.76;98479.94;5437498;26;20070;-79
2022/05/14 06:28:32;;;;;;;8.45;3.20;;;;;;;25.87;41.02;98483.63;5437493;26;20114;-79
2022/05/14 06:30:59;;;;;;;7.72;3.25;;;;;;;26.27;40.92;98486.75;5437165;26;20067;-79
2022/05/14 06:33:26;;;;;;;8.85;3.00;;;;;;;25.72;41.61;98486.91;5437574;26;20114;-78
2022/05/14 06:35:53;;;;;;;8.60;3.08;;;;;;;25.09;42.17;98490.31;5437550;26;20048;-78
2022/05/14 06:38:20;;;;;;;9.18;3.15;;;;;;;25.13;42.26;98493.53;5436924;26;20102;-78
2022/05/14 06:40:49;;;;;;;7.85;3.03;;;;;;;24.88;41.35;98498.44;5437582;26;20063;-78
2022/05/14 06:43:16;;;;;;;8.93;3.22;;;;;;;25.48;40.71;98490.94;5437189;26;20048;-79
2022/05/14 06:45:43;;;;;;;12.48;3.08;;;;;;;25.37;39.38;98497.28;5437472;26;20102;-79
2022/05/14 06:48:11;;;;;;;10.82;3.12;;;;;;;25.41;39.39;98504.91;5437376;26;20118;-78
2022/05/14 06:50:46;;;;;;;6.82;3.00;;;;;;;25.04;40.62;98500.50;5437194;26;20059;-78
2022/05/14 06:53:15;;;;;;;9.02;3.15;;;;;;;24.38;42.35;98498.75;5416761;26;20510;-78
2022/05/14 06:55:43;;;;;;;8.68;2.70;;;;;;;24.65;41.33;98507.69;5437604;26;20103;-78
2022/05/14 06:58:15;;;;;;;10.23;3.08;;;;;;;24.43;40.13;98509.69;5416716;26;20094;-78
2022/05/14 07:00:43;;;;;;;6.93;2.72;;;;;;;24.92;40.37;98513.03;5437522;26;20086;-78
2022/05/14 07:08:44;;;;;;;9.80;3.00;;;;;;;25.48;37.37;98506.81;5437444;26;20063;-78
2022/05/14 07:11:11;;;;;;;8.77;2.60;;;;;;;24.76;40.42;98505.72;5437416;26;20134;-78
2022/05/14 07:13:39;;;;;;;10.25;2.90;;;;;;;25.06;38.54;98512.56;5416856;26;20063;-78
2022/05/14 07:16:10;;;;;;;7.78;2.60;;;;;;;25.62;36.98;98505.44;5437589;26;20069;-78
2022/05/14 07:18:37;;;;;;;9.85;2.80;;;;;;;25.81;36.52;98507.16;5436923;26;20054;-78
2022/05/14 07:21:04;;;;;;;5.32;2.50;;;;;;;25.59;36.59;98506.59;5437261;26;20118;-78
2022/05/14 07:23:31;;;;;;;10.27;2.90;;;;;;;26.11;36.02;98501.50;5437482;26;20098;-78
2022/05/14 07:26:03;;;;;;;7.72;3.00;;;;;;;25.90;37.13;98499.16;5436895;26;20099;-79
2022/05/14 07:28:31;;;;;;;7.03;2.80;;;;;;;25.82;36.72;98500.91;5437057;26;20078;-78
2022/05/14 07:31:01;;;;;;;7.85;2.60;;;;;;;25.65;39.60;98505.19;5437269;26;20074;-78
2022/05/14 07:33:29;;;;;;;6.97;2.90;;;;;;;25.27;35.57;98496.50;5437063;26;20063;-79
2022/05/14 07:35:57;;;;;;;8.75;2.90;;;;;;;25.30;38.77;98505.94;5437372;26;20389;-79
2022/05/14 07:38:24;;;;;;;7.50;2.53;;;;;;;25.70;36.33;98502.09;5437211;26;20126;-78
2022/05/14 07:40:51;;;;;;;10.32;2.60;;;;;;;25.02;35.86;98511.22;5437007;26;20055;-79
2022/05/14 07:43:26;;;;;;;8.80;2.70;;;;;;;24.82;37.24;98506.94;5416956;26;20453;-78
2022/05/14 07:45:56;;;;;;;5.53;2.40;;;;;;;24.59;37.16;98516.19;5416933;26;20043;-78
2022/05/14 07:48:29;;;;;;;6.35;2.92;;;;;;;24.65;37.02;98513.78;5436760;26;20126;-78
2022/05/14 07:50:58;;;;;;;6.85;2.50;;;;;;;24.12;36.36;98502.88;5437340;26;20070;-78
2022/05/14 07:53:30;;;;;;;9.15;2.72;;;;;;;23.19;39.76;98509.41;5416522;26;20141;-79
2022/05/14 07:55:58;;;;;;;6.30;2.42;;;;;;;23.53;39.78;98523.06;5417884;26;20047;-78
2022/05/14 07:58:25;;;;;;;5.85;2.60;;;;;;;23.26;38.64;98507.87;5437020;26;20118;-78
2022/05/14 08:00:52;;;;;;;11.77;2.60;;;;;;;22.57;39.23;98509.50;5416647;26;20069;-78
2022/05/14 08:03:23;;;;;;;8.02;2.60;;;;;;;23.48;40.98;98517.34;5437325;26;20102;-78
2022/05/14 08:05:51;;;;;;;7.37;2.50;;;;;;;24.71;38.10;98512.41;5437251;26;20039;-78
2022/05/14 08:08:18;;;;;;;9.40;3.55;;;;;;;24.77;39.42;98511.81;5436756;26;20118;-79
2022/05/14 08:10:45;;;;;;;7.97;2.72;;;;;;;25.22;36.74;98513.78;5431606;26;144450;-79
2022/05/14 08:13:16;;;;;;;10.48;2.83;;;;;;;25.59;37.65;98509.22;5437328;26;20051;-79
2022/05/14 08:15:44;;;;;;;5.95;2.20;;;;;;;26.13;34.99;98511.91;5436873;26;20113;-79
2022/05/14 08:18:11;;;;;;;5.93;2.42;;;;;;;25.80;34.71;98503.69;5436999;26;20063;-79
2022/05/14 08:20:39;;;;;;;7.10;2.33;;;;;;;25.34;33.75;98509.94;5436893;26;20127;-79
2022/05/14 08:25:56;;;;;;;7.68;2.40;;;;;;;25.04;34.98;98506.63;5437198;26;20094;-79
2022/05/14 08:28:23;;;;;;;11.10;2.87;;;;;;;25.91;34.58;98514.03;5416657;26;20409;-79
2022/05/14 08:30:50;;;;;;;6.80;2.40;;;;;;;25.31;36.28;98521.66;5436759;26;20130;-79
2022/05/14 08:33:17;;;;;;;8.05;2.40;;;;;;;24.78;37.00;98514.34;5437211;26;20119;-79
2022/05/14 08:35:44;;;;;;;8.07;2.58;;;;;;;24.67;37.08;98508.38;5436861;26;20046;-79
2022/05/14 08:38:12;;;;;;;7.43;2.58;;;;;;;25.16;35.36;98507.25;5436983;26;20071;-79
2022/05/14 08:40:41;;;;;;;6.57;2.28;;;;;;;24.74;36.16;98504.19;5437085;26;20114;-78
2022/05/14 08:43:20;;;;;;;7.85;2.55;;;;;;;25.09;35.84;98499.09;5436801;26;20135;-79
2022/05/14 08:45:47;;;;;;;7.15;2.42;;;;;;;24.69;36.57;98485.34;5437195;26;20113;-79
2022/05/14 08:48:15;;;;;;;9.75;2.62;;;;;;;24.51;37.85;98503.69;5437026;26;20110;-79
2022/05/14 08:50:44;;;;;;;10.43;2.35;;;;;;;24.65;37.68;98495.31;5436759;26;20119;-79
2022/05/14 08:53:13;;;;;;;7.22;2.40;;;;;;;24.40;37.11;98501.22;5416790;26;20329;-78
2022/05/14 08:55:47;;;;;;;6.32;2.28;;;;;;;24.43;37.07;98500.94;5416613;26;20306;-79
2022/05/14 08:58:38;;;;;;;6.30;2.47;;;;;;;25.01;35.25;98506.91;5416314;26;20110;-79
2022/05/14 09:01:06;;;;;;;9.43;2.17;;;;;;;25.16;35.44;98501.97;5437180;26;20115;-78
2022/05/14 09:03:33;;;;;;;7.60;2.45;;;;;;;24.97;35.96;98508.13;5416387;26;20456;-77
2022/05/14 09:06:00;;;;;;;6.65;2.40;;;;;;;24.90;35.76;98501.78;5436840;26;20347;-77
2022/05/14 09:08:27;;;;;;;7.75;2.25;;;;;;;25.18;38.00;98499.19;5436666;26;20062;-77
2022/05/14 09:11:05;;;;;;;7.95;2.28;;;;;;;26.16;35.19;98495.78;5436597;26;20118;-79
2022/05/14 09:13:56;;;;;;;5.22;2.30;;;;;;;25.22;34.42;98503.22;5417140;26;20055;-79
2022/05/14 09:16:43;;;;;;;5.18;2.45;;;;;;;25.63;35.53;98493.94;5436714;26;20052;-78
2022/05/14 09:19:20;;;;;;;5.12;2.35;;;;;;;25.52;34.17;98487.06;5436264;26;20094;-78
2022/05/14 09:21:50;;;;;;;8.40;2.20;;;;;;;24.73;35.74;98484.06;5437038;26;20467;-78
2022/05/14 09:24:25;;;;;;;5.37;2.25;;;;;;;24.96;34.43;98482.72;5437175;26;20048;-78
2022/05/14 09:26:56;;;;;;;7.03;2.00;;;;;;;25.02;37.12;98491.91;5436614;26;20040;-79
2022/05/14 09:29:35;;;;;;;5.22;1.80;;;;;;;25.31;35.79;98489.97;5416447;26;20063;-80
2022/05/14 09:32:12;;;;;;;8.32;2.33;;;;;;;25.14;32.13;98479.34;5436432;26;20073;-80
2022/05/14 09:34:39;;;;;;;8.35;1.95;;;;;;;25.54;33.64;98490.38;5416705;26;20154;-79
2022/05/14 09:37:11;;;;;;;9.55;2.37;;;;;;;25.25;33.92;98489.72;5436898;26;20047;-79
2022/05/14 09:39:39;;;;;;;6.25;1.90;;;;;;;24.96;34.23;98487.16;5436479;26;20082;-79
2022/05/14 09:42:23;;;;;;;6.18;2.08;;;;;;;25.66;34.02;98478.59;5436773;26;20102;-79
2022/05/14 09:44:52;;;;;;;6.53;2.10;;;;;;;26.24;32.77;98477.28;5436908;26;20366;-78
2022/05/14 09:47:31;;;;;;;7.70;2.03;;;;;;;26.51;33.21;98487.78;5436216;26;20073;-77
2022/05/14 09:50:00;;;;;;;6.30;1.92;;;;;;;26.99;31.46;98490.84;5436880;26;20456;-77
2022/05/14 09:52:30;;;;;;;4.85;2.00;;;;;;;26.00;30.63;98474.47;5436702;26;20310;-77
2022/05/14 09:54:57;;;;;;;5.72;2.00;;;;;;;25.52;32.54;98468.56;5436584;26;20418;-78
2022/05/14 09:57:31;;;;;;;7.07;2.35;;;;;;;25.37;34.08;98470.03;5436669;26;20050;-78
2022/05/14 10:00:21;;;;;;;6.70;1.60;;;;;;;25.60;34.45;98476.53;5416166;26;20509;-79
2022/05/14 10:03:06;;;;;;;6.22;1.90;;;;;;;25.71;31.73;98480.81;5436380;26;20059;-78
2022/05/14 10:05:50;;;;;;;6.82;2.03;;;;;;;26.42;29.90;98466.72;5436817;26;20117;-79
2022/05/14 10:08:48;;;;;;;4.95;1.87;;;;;;;26.61;30.89;98470.97;5436188;26;20090;-79
2022/05/14 10:11:36;;;;;;;7.00;2.12;;;;;;;26.19;30.66;98475.13;5436636;26;20427;-79
2022/05/14 10:14:20;;;;;;;6.75;2.30;;;;;;;26.48;30.27;98466.09;5421350;26;20753;-79
2022/05/14 10:16:47;;;;;;;6.05;1.90;;;;;;;25.81;31.26;98464.88;5436701;26;20114;-79
2022/05/14 10:20:11;;;;;;;5.85;1.80;;;;;;;26.16;30.77;98461.37;5436004;26;20094;-79
2022/05/14 10:28:46;;;;;;;4.05;1.55;;;;;;;26.29;32.47;98469.75;5429891;26;20409;-79
2022/05/14 10:31:16;;;;;;;8.98;2.22;;;;;;;27.00;29.92;98463.38;5437461;26;20046;-79
2022/05/14 10:33:43;;;;;;;6.62;2.10;;;;;;;27.00;30.71;98460.72;5437685;26;20062;-79
2022/05/14 10:36:26;;;;;;;7.72;1.87;;;;;;;26.52;31.48;98465.62;5416873;26;20073;-79
2022/05/14 10:38:57;;;;;;;5.82;2.05;;;;;;;27.07;30.01;98456.50;5437580;26;20114;-79
2022/05/14 10:41:32;;;;;;;4.95;2.10;;;;;;;26.40;32.68;98461.59;5437632;26;20058;-79
2022/05/14 10:44:06;;;;;;;7.28;2.10;;;;;;;27.06;31.24;98452.19;5437389;26;20142;-79
2022/05/14 10:46:34;;;;;;;4.70;1.80;;;;;;;26.12;32.16;98450.28;5437617;26;20479;-79
2022/05/14 10:49:13;;;;;;;8.43;1.98;;;;;;;26.27;31.14;98441.78;5416556;26;20426;-79
2022/05/14 10:51:45;;;;;;;3.72;1.75;;;;;;;26.61;33.10;98455.09;5417237;26;20047;-79
2022/05/14 10:54:20;;;;;;;8.98;1.85;;;;;;;26.40;32.79;98455.47;5416892;26;20118;-79
2022/05/14 10:56:53;;;;;;;6.25;1.77;;;;;;;26.58;32.26;98448.28;5437220;26;20063;-79
2022/05/14 10:59:38;;;;;;;6.22;1.87;;;;;;;27.04;31.05;98451.53;5437392;26;20177;-79
2022/05/14 11:02:09;;;;;;;3.90;1.55;;;;;;;26.45;29.07;98446.06;5437568;26;20085;-79
2022/05/14 11:04:36;;;;;;;5.05;1.50;;;;;;;25.70;30.80;98444.78;5437294;26;20107;-79
2022/05/14 11:07:05;;;;;;;5.75;1.98;;;;;;;25.47;31.32;98439.09;5437386;26;20063;-79
2022/05/14 11:09:41;;;;;;;4.12;1.73;;;;;;;25.81;32.65;98439.28;5417105;26;20402;-79
2022/05/14 11:12:30;;;;;;;3.72;1.70;;;;;;;26.01;32.62;98441.75;5416624;26;20053;-79
2022/05/14 11:14:59;;;;;;;5.15;1.65;;;;;;;25.58;30.83;98430.13;5437548;26;20125;-79
2022/05/14 11:17:28;;;;;;;7.10;1.98;;;;;;;25.68;29.42;98425.59;5437063;26;20102;-79
2022/05/14 11:20:04;;;;;;;8.50;1.77;;;;;;;24.79;31.07;98430.72;5437272;26;20057;-79
2022/05/14 11:22:35;;;;;;;5.78;1.83;;;;;;;25.07;31.07;98442.12;5437138;26;20062;-79
2022/05/14 11:25:11;;;;;;;5.15;1.95;;;;;;;25.30;33.01;98432.81;5437020;26;20541;-79
2022/05/14 11:27:39;;;;;;;4.22;1.62;;;;;;;26.07;30.60;98434.06;5437399;26;20075;-79
2022/05/14 11:30:09;;;;;;;5.57;1.73;;;;;;;25.12;31.96;98420.59;5417110;26;20067;-79
2022/05/14 11:32:44;;;;;;;4.15;1.60;;;;;;;24.50;31.98;98430.81;5416726;26;20394;-78
2022/05/14 11:35:11;;;;;;;3.78;1.70;;;;;;;24.85;32.06;98430.13;5437420;26;20464;-78
2022/05/14 11:37:43;;;;;;;4.40;1.70;;;;;;;24.88;32.60;98436.91;5437317;26;20457;-79
2022/05/14 11:40:19;;;;;;;6.37;1.50;;;;;;;24.42;32.45;98431.53;5416294;26;20110;-79
2022/05/14 11:43:05;;;;;;;6.27;2.00;;;;;;;24.95;33.16;98432.72;5437435;26;20059;-79
2022/05/14 11:45:33;;;;;;;6.47;1.87;;;;;;;25.99;31.64;98428.69;5436964;26;20340;-79
2022/05/14 11:48:08;;;;;;;6.47;1.70;;;;;;;26.01;32.95;98432.00;5416918;26;20059;-79
2022/05/14 11:50:50;;;;;;;3.23;1.60;;;;;;;25.71;31.62;98430.59;5417224;26;20047;-79
2022/05/14 11:53:28;;;;;;;5.65;1.95;;;;;;;25.72;30.81;98418.22;5437024;26;20127;-79
2022/05/14 11:56:20;;;;;;;6.45;1.80;;;;;;;25.14;31.45;98423.91;5416967;26;20118;-79
2022/05/14 11:58:52;;;;;;;3.72;1.60;;;;;;;24.38;31.75;98422.25;5437302;26;20075;-78
2022/05/14 12:01:22;;;;;;;5.20;1.50;;;;;;;24.57;30.22;98413.47;5436872;26;20059;-79
2022/05/14 12:03:50;;;;;;;5.15;1.60;;;;;;;24.07;33.59;98418.13;5417162;26;20404;-78
2022/05/14 12:06:47;;;;;;;5.20;1.73;;;;;;;23.96;30.56;98421.75;5436798;26;20532;-78
2022/05/14 12:09:23;;;;;;;6.22;1.77;;;;;;;24.46;29.66;98419.75;5437260;26;20442;-78
2022/05/14 12:11:56;;;;;;;5.60;2.03;;;;;;;24.65;30.10;98416.19;5437265;26;20149;-78
2022/05/14 12:14:33;;;;;;;2.65;1.35;;;;;;;25.05;30.65;98415.06;5436854;26;20057;-79